Tiempo atmosférico en la estación meteorológica de Medina De Pomar, Burgos (580 m.)



Fecha
DESCASC
Temp. máxima en grados centígrados (hora)
DESCASC
Temp. mínima en grados centígrados (hora)
DESCASC
Temp. media en grados centígrados
DESCASC
Racha de viento máxima en m/sg (hora)
DESCASC
Velocidad máxima media en intervalos de 10 minutos(hora)
DESCASC
Precipitaciones diarias en mm
DESCASC
Precipitaciones de 00:00 a 06:00 en mm
DESCASC
Precipitaciones de 06:00 a 12:00 en mm
DESCASC
Precipitaciones de 12:00 a 18:00 en mm
DESCASC
Precipitaciones de 18:00 a 24:00 en mm
DESCASC
23-06-2019 31.8 (15:00) 13.3 (07:20) 22.5 10.56 (14:40) 4.17 (15:10) 0 0 0 0 0
22-06-2019 31 (17:40) 5.7 (06:10) 18.3 7.5 (17:20) 3.06 (18:10) 0 0 0 0 0
21-06-2019 20.3 (17:50) 12.1 (06:30) 16.2 8.06 (19:30) 3.89 (16:10) 4.4 4.4 0 0 0
20-06-2019 20.7 (15:50) 12.6 (00:00) 16.7 9.44 (16:30) 5 (16:30) 0.4 0 0 0 0.4
19-06-2019 24.5 (16:30) 15.4 (00:00) 19.9 10.83 (09:30) 5.28 (11:40) 0 0 0 0 0
18-06-2019 31.7 (16:50) 11.9 (00:00) 21.8 15.28 (14:40) 6.11 (16:50) 0 0 0 0 0
17-06-2019 32.3 (16:50) 8.4 (00:00) 20.3 14.72 (16:40) 3.61 (15:40) 0 0 0 0 0
16-06-2019 29.1 (16:40) 3.9 (00:00) 16.5 10.83 (20:10) 5.28 (19:10) 0 0 0 0 0
15-06-2019 22.3 (16:10) 8.8 (00:00) 15.5 9.72 (20:50) 4.72 (18:30) 0 0 0 0 0
14-06-2019 19.3 (14:10) 10.9 (00:00) 15.1 10.83 (17:10) 5 (17:30) 0 0 0 0 0
13-06-2019 24.9 (15:30) 6 (00:00) 15.4 13.06 (17:50) 6.39 (16:30) 0 0 0 0 0
12-06-2019 20.2 (16:30) 3 (00:00) 11.6 10.83 (19:50) 5.28 (20:00) 0 0 0 0 0
11-06-2019 14.4 (17:20) 8 (00:00) 11.2 11.39 (15:00) 4.17 (13:20) 1.6 1.6 0 0 0
10-06-2019 17.3 (15:30) 6.9 (00:00) 12.1 7.5 (18:20) 3.89 (19:00) 2.6 0 0 0 2.6
09-06-2019 19.9 (15:30) 10.8 (00:00) 15.3 10.83 (17:20) 5.28 (16:00) 0 0 0 0 0
08-06-2019 21.8 (16:30) 5.3 (00:00) 13.5 10.56 (17:40) 5.56 (17:40) 0 0 0 0 0
07-06-2019 18.9 (15:10) 9.2 (00:00) 14 16.94 (01:50) 6.67 (10:50) 0.8 0.8 0 0 0
06-06-2019 24 (18:30) 5.9 (00:00) 15 18.61 (23:40) 8.61 (23:59) 1.4 0.2 0 0 1.2
05-06-2019 15.3 (16:40) 8.8 (00:00) 12.1 9.17 (11:40) 4.17 (13:50) 12 6.6 5.4 0 0
04-06-2019 26.5 (16:50) 9.7 (00:00) 18.1 12.22 (13:20) 5.28 (13:40) 1 0 0 0 1
03-06-2019 28.8 (15:20) 11.1 (00:00) 19.9 10.56 (18:40) 5.28 (16:20) 0 0 0 0 0
02-06-2019 32.8 (15:20) 10.6 (00:00) 21.7 11.67 (16:00) 4.72 (16:00) 0 0 0 0 0
01-06-2019 34.1 (16:40) 8.7 (00:00) 21.4 9.17 (19:20) 5 (19:10) 0 0 0 0 0
31-05-2019 31.8 (18:00) 5.7 (00:00) 18.7 8.06 (19:30) 3.61 (18:10) 0 0 0 0 0
30-05-2019 28 (17:40) 4.3 (00:00) 16.2 8.33 (18:40) 3.61 (19:00) 0 0 0 0 0
29-05-2019 19.9 (17:00) 9.5 (00:00) 14.7 8.33 (18:40) 4.44 (18:50) 0 0 0 0 0
28-05-2019 16.6 (18:30) 8.7 (00:00) 12.7 10.56 (17:40) 3.33 (14:30) 0 0 0 0 0

Gráficas

Temp. máximas Temp. mínimas Temp. medias Precipitaciones Rachas de viento máximas Velocidades máximas media en intervalos de 10 minutos

Datos horarios

Fecha y hora oficial Temperatura (ºC) Velocidad del viento (km/h) Dirección del viento Racha (km/h) Dirección de racha Precipitación (mm) Presión (hPa) Tendencia (hPa) Humedad (%)
2019-06-26 23:00:00 27.8 9 Norte 23 Sur 0 949.5 2.1 40
2019-06-26 22:00:00 31 5 Sur 19 Sudeste 0 948.3 1.3 27
2019-06-26 21:00:00 33.9 12 Sudeste 34 Este 0 947.7 0.5 23
2019-06-26 20:00:00 35.3 14 Sudeste 42 Sudeste 0 947.4 -0.3 22
2019-06-26 19:00:00 36.3 13 Sudeste 32 Sudeste 0 947 -1 20
2019-06-26 18:00:00 36.6 13 Sudeste 36 Este 0 947.2 -1.1 21
2019-06-26 17:00:00 36.2 15 Sudeste 39 Sudeste 0 947.7 -1.3 21
2019-06-26 16:00:00 35.4 17 Sudeste 39 Sudeste 0 948 -1.5 23
2019-06-26 15:00:00 34.6 14 Sudeste 39 Sudeste 0 948.3 -1.5 24
2019-06-26 14:00:00 33.2 18 Sudeste 32 Este 0 949 -1.4 28
2019-06-26 13:00:00 31.1 13 Sudeste 33 Sudeste 0 949.5 -1.1 34
2019-06-26 12:00:00 29.1 16 Sudeste 32 Este 0 949.8 -0.6 40
2019-06-26 11:00:00 26.4 11 Sudeste 26 Sudeste 0 950.4 0 51
2019-06-26 10:00:00 21.9 3 Oeste 11 Sur 0 950.6 0.5 68
2019-06-26 09:00:00 19.9 3 Este 6 Sudeste 0 950.4 0.4 76
2019-06-26 08:00:00 17.2 2 Sur 5 Este 0 950.4 0.5 89
2019-06-26 07:00:00 16.4 3 Nordeste 7 Noroeste 0 950.1 0.2 88
2019-06-26 06:00:00 17.4 3 Norte 9 Norte 0 950 0 87
2019-06-26 05:00:00 18.2 5 Norte 12 Norte 0 949.9 -0.5 84
2019-06-26 04:00:00 18.2 7 Norte 14 Nordeste 0 949.9 -1.1 84
2019-06-26 03:00:00 18.3 8 Nordeste 20 Nordeste 0 950 -1 83
2019-06-26 02:00:00 18.7 9 Nordeste 21 Este 0 950.4 -0.5 82
2019-06-26 01:00:00 18.8 10 Nordeste 22 Nordeste 0 951 0.6 82
2019-06-26 00:00:00 19 10 Nordeste 25 Nordeste 0 951 1 81
2019-06-25 23:00:00 19.8 8 Nordeste 18 Norte 0 950.9 1.6 79
2019-06-25 22:00:00 20.3 7 Norte 19 Norte 0 950.4 1.6 73
2019-06-25 21:00:00 22.1 8 Norte 24 Norte 0 950 1.2 65
2019-06-25 20:00:00 23.3 10 Norte 29 Norte 0 949.3 0.5 61
2019-06-25 19:00:00 26 15 Norte 37 Norte 0 948.8 -0.1 53
2019-06-25 18:00:00 28.6 13 Norte 36 Norte 0 948.8 -0.4 46
2019-06-25 17:00:00 30 14 Norte 32 Noroeste 0 948.8 -1.1 39
2019-06-25 16:00:00 31.7 12 Sudeste 27 Este 0 948.9 -1.2 27
2019-06-25 15:00:00 30.4 9 Sudeste 22 Este 0 949.2 -1.2 33
2019-06-25 14:00:00 28.4 6 Sudeste 23 Sur 0 949.9 -0.5 37
2019-06-25 13:00:00 26.1 7 Sudeste 15 Sudeste 0 950.1 -0.7 45
2019-06-25 12:00:00 24 5 Sur 13 Noroeste 0 950.4 -0.6 47
2019-06-25 11:00:00 22.9 3 Sur 10 Sur 0 950.4 -0.4 49
2019-06-25 10:00:00 19.5 3 Sudeste 8 Sur 0 950.8 0.1 62
2019-06-25 09:00:00 15.4 3 Nordeste 7 Nordeste 0 951 0.6 77
2019-06-25 08:00:00 12.5 3 Nordeste 8 Norte 0 950.8 0.5 87
2019-06-25 07:00:00 11.2 3 Nordeste 6 Norte 0 950.7 0.2 90
2019-06-25 06:00:00 11.7 0 Calma 3 Oeste 0 950.4 -0.3 90
2019-06-25 05:00:00 12.2 0 Calma 8 Nordeste 0 950.3 -0.4 89
2019-06-25 04:00:00 12.6 3 Nordeste 5 Este 0 950.5 -0.2 87
2019-06-25 03:00:00 13.2 0 Calma 6 Nordeste 0 950.7 0.1 86
2019-06-25 02:00:00 13.6 2 Sudeste 11 Nordeste 0 950.7 0.2 83
2019-06-25 01:00:00 14.8 0 Calma 5 Este 0 950.7 1.2 80
2019-06-25 00:00:00 16.2 3 Nordeste 7 Sur 0 950.6 1.5 74
2019-06-24 23:00:00 17.6 4 Sudeste 9 Sudoeste 0 950.5 2.5 67
2019-06-24 22:00:00 18.6 3 Sudoeste 14 Norte 0 949.5 2.6 67
2019-06-24 21:00:00 19.8 8 Norte 24 Nordeste 0 949.1 2.9 70
2019-06-24 20:00:00 20.7 12 Norte 31 Norte 0 948 1.8 70
2019-06-24 19:00:00 23.9 11 Norte 27 Norte 0 946.9 0.7 58
2019-06-24 18:00:00 28.2 5 Oeste 21 Sur 0 946.2 -0.4 34
2019-06-24 17:00:00 29.4 9 Sur 21 Sudeste 0 946.2 -1.1 26
2019-06-24 16:00:00 29.8 4 Este 19 Nordeste 0 946.2 -0.9 29
2019-06-24 15:00:00 26.8 5 Sur 15 Sudeste 0 946.6 -0.9 36
2019-06-24 14:00:00 25.9 9 Sudeste 21 Este 0 947.3 -0.7 41
2019-06-24 13:00:00 24.6 3 Nordeste 20 Sudeste 0 947.1 -0.9 50
2019-06-24 12:00:00 19.9 4 Sudoeste 12 Sudoeste 0 947.5 0 69
2019-06-24 11:00:00 19.4 2 Este 9 Este 0 948 0.5 70
2019-06-24 10:00:00 18 2 Sudeste 6 Sudeste 0 948 0.4 77
2019-06-24 09:00:00 16.8 3 Noroeste 6 Sudoeste 0 947.5 0.6 82
2019-06-24 08:00:00 15.7 3 Oeste 7 Este 0 947.5 0.2 88
2019-06-24 07:00:00 15.6 0 Calma 5 Oeste 0 947.6 0.2 87
2019-06-24 06:00:00 15.9 2 Sur 6 Nordeste 0 946.9 -0.4 86
2019-06-24 05:00:00 16.4 2 Nordeste 7 Este 0 947.3 -0.1 85
2019-06-24 04:00:00 16.8 3 Noroeste 13 Noroeste 0 947.4 0.2 80
2019-06-24 03:00:00 17.3 6 Noroeste 15 Norte 0 947.3 0 76
2019-06-24 02:00:00 17.4 5 Norte 14 Norte 0 947.4 0 75
2019-06-24 01:00:00 18 3 Noroeste 13 Norte 0 947.2 0.4 73
2019-06-24 00:00:00 18.5 5 Norte 17 Norte 0 947.3 0.7 70
2019-06-23 23:00:00 19.7 8 Norte 21 Norte 0 947.4 1.4 66
2019-06-23 22:00:00 20.9 9 Norte 21 Norte 0 946.8 1.2 60
2019-06-23 21:00:00 23.3 7 Norte 17 Norte 0 946.6 1 53
2019-06-23 20:00:00 25.4 8 Norte 24 Nordeste 0 946 0.3 41
2019-06-23 19:00:00 27.8 9 Nordeste 17 Norte 0 945.6 -0.4 29
2019-06-23 18:00:00 28.7 7 Noroeste 24 Sur 0 945.6 -0.5 21
2019-06-23 17:00:00 30.7 12 Oeste 32 Oeste 0 945.7 -0.6 18
2019-06-23 16:00:00 30.4 10 Oeste 32 Sudoeste 0 946 -0.6 19
2019-06-23 15:00:00 31.4 12 Sur 38 Oeste 0 946.1 -0.6 18
2019-06-23 14:00:00 29.9 10 Sur 27 Sudeste 0 946.3 -0.8 20
2019-06-23 13:00:00 27.9 9 Sudeste 28 Sur 0 946.6 -0.5 27
2019-06-23 12:00:00 26.7 10 Sudeste 21 Este 0 946.7 -0.2 30
2019-06-23 11:00:00 23.4 3 Sur 8 Sudoeste 0 947.1 0.5 40
2019-06-23 10:00:00 19.6 3 Norte 8 Nordeste 0 947.1 1 57
2019-06-23 09:00:00 15.5 3 Norte 10 Nordeste 0 946.9 1.5 81
2019-06-23 08:00:00 13.7 2 Oeste 11 Sudeste 0 946.6 1.6 89
2019-06-23 07:00:00 13.4 2 Nordeste 4 Norte 0 946.1 1 89
2019-06-23 06:00:00 13.7 0 Calma 5 Este 0 945.4 0 87
2019-06-23 05:00:00 14.7 0 Calma 5 Norte 0 945 -0.6 86
2019-06-23 04:00:00 15.1 2 Sudeste 4 Sur 0 945.1 -0.8 85
2019-06-23 03:00:00 16.1 2 Sur 5 Sudoeste 0 945.4 -0.8 82
2019-06-23 02:00:00 16.9 0 Calma 16 Sudeste 0 945.6 -0.6 79
2019-06-23 01:00:00 17.8 0 Calma 5 Este 0 945.9 0.1 75
2019-06-23 00:00:00 19.2 2 Nordeste 5 Sur 0 946.2 0.5 69
2019-06-22 23:00:00 21.1 3 Sudeste 5 Sudeste 0 946.2 0.7 61
2019-06-22 22:00:00 23.8 0 Calma 12 Norte 0 945.8 0.3 48
2019-06-22 21:00:00 25.7 7 Norte 14 Norte 0 945.7 -0.1 40
2019-06-22 20:00:00 29.9 6 Oeste 16 Sudoeste 0 945.5 -0.7 20
2019-06-22 19:00:00 29.7 6 Oeste 27 Oeste 0 945.5 -1.3 22
2019-06-22 18:00:00 30.4 6 Oeste 27 Sur 0 945.8 -1.8 19
2019-06-22 17:00:00 30.1 6 Sudoeste 21 Noroeste 0 946.2 -2.5 19
2019-06-22 16:00:00 29 5 Nordeste 13 Nordeste 0 946.8 -2.6 26
2019-06-22 15:00:00 27 4 Nordeste 13 Nordeste 0 947.6 -2.8 31
2019-06-22 14:00:00 23.9 3 Norte 11 Sur 0 948.7 -2.5 40
2019-06-22 13:00:00 21.1 6 Sudeste 14 Sudeste 0 949.4 -2.3 49
2019-06-22 12:00:00 16.5 5 Sudeste 11 Este 0 950.4 -1.6 63
2019-06-22 11:00:00 11.1 3 Noroeste 8 Sudeste 0 951.2 -0.7 87
2019-06-22 10:00:00 9.9 2 Sur 8 Sudeste 0 951.7 -0.3 93
2019-06-22 09:00:00 8.9 4 Sudeste 8 Sudeste 0 952 0.3 94
2019-06-22 08:00:00 8.1 5 Sudeste 10 Sudeste 0 951.9 -0.2 94
2019-06-22 07:00:00 6.4 4 Nordeste 8 Este 0 952 -0.7 93
2019-06-22 06:00:00 5.9 3 Nordeste 5 Nordeste 0 951.7 -1.3 92
2019-06-22 05:00:00 6.8 4 Norte 8 Nordeste 0 952.1 -1.5 92
2019-06-22 04:00:00 7.4 2 Norte 5 Norte 0 952.7 -1.1 91
2019-06-22 03:00:00 8.3 3 Este 6 Nordeste 0 953 -0.8 90
2019-06-22 02:00:00 9.2 0 Calma 5 Sur 0 953.6 -0.4 89
2019-06-22 01:00:00 10.4 3 Sur 8 Norte 0 953.8 0.4 86
2019-06-22 00:00:00 12.5 5 Nordeste 16 Norte 0 953.8 0.9 79
2019-06-21 23:00:00 13.6 7 Nordeste 21 Nordeste 0 954 1.7 75
2019-06-21 22:00:00 14.9 7 Norte 23 Nordeste 0 953.4 0.9 72
2019-06-21 21:00:00 17.5 12 Nordeste 22 Este 0 952.9 0.4 61
2019-06-21 20:00:00 19 10 Nordeste 29 Este 0 952.3 -0.5 54
2019-06-21 19:00:00 18.6 10 Nordeste 22 Nordeste 0 952.5 -0.6 52
2019-06-21 18:00:00 19.3 11 Nordeste 27 Nordeste 0 952.5 -0.8 54
2019-06-21 17:00:00 18.7 10 Nordeste 28 Nordeste 0 952.8 -0.8 55
2019-06-21 16:00:00 17.6 11 Nordeste 22 Nordeste 0 953.1 -0.5 61
2019-06-21 15:00:00 17.5 11 Nordeste 21 Nordeste 0 953.3 -0.4 68
2019-06-21 14:00:00 16.5 9 Este 19 Este 0 953.6 0.1 65
2019-06-21 13:00:00 15 5 Norte 12 Nordeste 0 953.6 0.5 70
2019-06-21 12:00:00 13.8 5 Norte 19 Nordeste 0 953.7 1.1 79
2019-06-21 11:00:00 13.1 6 Este 13 Este 0 953.5 1.5 80
2019-06-21 10:00:00 12.9 8 Este 19 Nordeste 0 953.1 1.6 82
2019-06-21 09:00:00 12.9 9 Nordeste 19 Nordeste 0 952.6 1.6 83
2019-06-21 08:00:00 12.5 5 Nordeste 13 Nordeste 0 952 1.7 90
2019-06-21 07:00:00 12.2 4 Nordeste 18 Norte 0 951.5 0.4 90
2019-06-21 06:00:00 12.4 8 Norte 18 Norte 0.2 951 -0.7 89
2019-06-21 05:00:00 12.5 9 Nordeste 18 Nordeste 0.6 950.3 -1.6 91
2019-06-21 04:00:00 12.9 3 Sudeste 5 Sudoeste 0.8 951.1 -0.7 91
2019-06-21 03:00:00 12.9 2 Oeste 5 Sudoeste 1 951.7 -0.2 91
2019-06-21 02:00:00 13 2 Sudoeste 7 Noroeste 1.4 951.9 0.2 90
2019-06-21 01:00:00 13.1 2 Noroeste 17 Noroeste 0.4 951.8 0.8 88
2019-06-21 00:00:00 13.5 5 Norte 16 Nordeste 0.4 951.9 1.5 85
2019-06-20 23:00:00 14.3 3 Norte 17 Norte 0 951.7 1.3 78
2019-06-20 22:00:00 14.6 9 Nordeste 21 Nordeste 0 951 1 76
2019-06-20 21:00:00 15.1 8 Nordeste 21 Nordeste 0 950.4 0.8 76
2019-06-20 20:00:00 15.1 10 Nordeste 30 Nordeste 0 950.4 1 77
2019-06-20 19:00:00 16.4 16 Nordeste 30 Nordeste 0 950 0.1 71
2019-06-20 18:00:00 17.9 15 Nordeste 34 Nordeste 0 949.6 -0.7 64
2019-06-20 17:00:00 19.4 16 Nordeste 34 Nordeste 0 949.4 -1 57
2019-06-20 16:00:00 19.3 15 Nordeste 28 Norte 0 949.9 -0.9 57
2019-06-20 15:00:00 19.2 9 Nordeste 26 Nordeste 0 950.3 -0.3 57
2019-06-20 14:00:00 18.8 12 Nordeste 24 Nordeste 0 950.4 0 61
2019-06-20 13:00:00 15.8 11 Nordeste 22 Nordeste 0 950.8 0.3 75
2019-06-20 12:00:00 15.6 7 Norte 16 Nordeste 0 950.6 -0.2 76
2019-06-20 11:00:00 15.8 2 Noroeste 8 Oeste 0 950.4 -0.2 78
2019-06-20 10:00:00 14.9 3 Noroeste 8 Noroeste 0 950.5 0.1 84
2019-06-20 09:00:00 13.9 0 Calma 5 Nordeste 0 950.8 0.4 86
2019-06-20 08:00:00 13.7 0 Calma 6 Este 0 950.6 0.3 84
2019-06-20 07:00:00 12.8 0 Calma 4 Nordeste 0 950.4 0.1 87
2019-06-20 06:00:00 13.4 2 Norte 7 Norte 0 950.4 -0.2 83
2019-06-20 05:00:00 14.1 4 Nordeste 10 Norte 0 950.3 -0.4 80
2019-06-20 04:00:00 14.4 3 Norte 9 Nordeste 0 950.3 -0.6 78
2019-06-20 03:00:00 14.8 4 Nordeste 8 Nordeste 0 950.6 0 77
2019-06-20 02:00:00 15 4 Nordeste 12 Este 0 950.7 0.4 77
2019-06-20 01:00:00 15.3 5 Este 12 Nordeste 0 950.9 1.2 76
2019-06-20 00:00:00 15.6 5 Este 24 Nordeste 0 950.6 1.6 77
2019-06-19 23:00:00 15.8 6 Norte 23 Nordeste 0 950.3 2.2 75
2019-06-19 22:00:00 15.9 10 Norte 30 Nordeste 0 949.7 2.3 77
2019-06-19 21:00:00 16.9 16 Nordeste 33 Nordeste 0 949 1.9 74
2019-06-19 20:00:00 19.3 17 Nordeste 32 Norte 0 948.1 1.1 67
2019-06-19 19:00:00 22.1 15 Nordeste 31 Nordeste 0 947.4 0 57
2019-06-19 18:00:00 22.5 12 Norte 26 Norte 0 947.1 -0.3 52
2019-06-19 17:00:00 23.9 10 Sudoeste 34 Sudoeste 0 947 -0.6 41
2019-06-19 16:00:00 23.6 9 Oeste 27 Oeste 0 947.4 -0.2 42
2019-06-19 15:00:00 23.5 10 Sudoeste 30 Sudoeste 0 947.4 -0.1 43
2019-06-19 14:00:00 22.3 12 Sudoeste 39 Sudoeste 0 947.6 0.3 46
2019-06-19 13:00:00 23.5 13 Sudoeste 34 Sudoeste 0 947.6 0.2 41
2019-06-19 12:00:00 22.8 11 Sudoeste 37 Oeste 0 947.5 0.4 44
2019-06-19 11:00:00 21.9 13 Sudoeste 36 Sudoeste 0 947.3 0.1 47
2019-06-19 10:00:00 20.3 14 Sudoeste 39 Sudoeste 0 947.4 0.2 54
2019-06-19 09:00:00 19.4 13 Sur 32 Sudoeste 0 947.1 0.2 58
2019-06-19 08:00:00 17.7 3 Sudeste 12 Sur 0 947.2 0.5 65
2019-06-19 07:00:00 15.6 5 Sur 9 Sur 0 947.2 0.8 74
2019-06-19 06:00:00 15.6 5 Sur 15 Sur 0 946.9 0.5 72
2019-06-19 05:00:00 16.2 4 Sudeste 12 Sudoeste 0 946.7 0.3 68
2019-06-19 04:00:00 17 6 Sur 15 Sudoeste 0 946.4 -0.2 66
2019-06-19 03:00:00 17.8 3 Sur 14 Sur 0 946.4 0 62
2019-06-19 02:00:00 19.1 3 Sudeste 17 Sudoeste 0 946.4 0.4 55
2019-06-19 01:00:00 18.8 2 Sudoeste 8 Sudeste 0 946.6 1.2 54
2019-06-19 00:00:00 19.9 3 Sudoeste 14 Sudoeste 0 946.4 1.7 46
2019-06-18 23:00:00 21.5 4 Sudoeste 24 Oeste 0 946 2.4 39
2019-06-18 22:00:00 23.4 7 Sudoeste 31 Sudoeste 0 945.4 2.1 34
2019-06-18 21:00:00 26.4 14 Oeste 43 Sudoeste 0 944.7 1.6 29
2019-06-18 20:00:00 28.8 15 Sudoeste 43 Oeste 0 943.6 0.6 20
2019-06-18 19:00:00 30 16 Sudoeste 48 Oeste 0 943.3 -0.2 15
2019-06-18 18:00:00 31.1 19 Oeste 42 Sudoeste 0 943.1 -1 12
2019-06-18 17:00:00 31.3 17 Sudoeste 50 Sudoeste 0 943 -1.3 11
2019-06-18 16:00:00 30.9 18 Sudoeste 54 Oeste 0 943.5 -1.1 13
2019-06-18 15:00:00 30.2 17 Sudoeste 55 Sudoeste 0 944.1 -0.8 12
2019-06-18 14:00:00 29.4 17 Sudoeste 49 Sur 0 944.3 -1 14
2019-06-18 13:00:00 28.6 12 Sudoeste 37 Sudoeste 0 944.6 -1.3 19
2019-06-18 12:00:00 27.3 9 Sur 29 Sur 0 944.9 -1.4 22
2019-06-18 11:00:00 24.8 10 Sudoeste 26 Sur 0 945.3 -1 26
2019-06-18 10:00:00 20.3 3 Sur 9 Sur 0 945.9 -0.1 55
2019-06-18 09:00:00 16.3 2 Nordeste 8 Este 0 946.3 0.6 69
2019-06-18 08:00:00 13.2 2 Nordeste 6 Nordeste 0 946.3 0.6 81
2019-06-18 07:00:00 12 0 Calma 6 Este 0 946 -0.2 85
2019-06-18 06:00:00 12.7 0 Calma 6 Norte 0 945.7 -1.5 88
2019-06-18 05:00:00 13.5 3 Norte 7 Nordeste 0 945.7 -1.9 86
2019-06-18 04:00:00 15.3 4 Sur 10 Norte 0 946.2 -1.1 82
2019-06-18 03:00:00 17.1 2 Nordeste 9 Norte 0 947.2 -0.4 79
2019-06-18 02:00:00 18.3 4 Norte 13 Norte 0 947.6 0.6 75
2019-06-18 01:00:00 19.2 5 Noroeste 15 Norte 0 947.3 0.7 72
2019-06-18 00:00:00 20.1 3 Nordeste 17 Norte 0 947.6 1.4 67
2019-06-17 23:00:00 20.8 7 Noroeste 18 Norte 0 947 0.9 65
2019-06-17 22:00:00 22.2 8 Norte 20 Norte 0 946.6 0.4 57
2019-06-17 21:00:00 24.4 8 Norte 22 Nordeste 0 946.2 -0.2 45
2019-06-17 20:00:00 27.6 4 Norte 12 Sudoeste 0 946.1 -0.5 21
2019-06-17 19:00:00 29 4 Oeste 20 Oeste 0 946.2 -0.7 17
2019-06-17 18:00:00 29.9 10 Sudoeste 29 Oeste 0 946.4 -1.1 16
2019-06-17 17:00:00 31.2 11 Sudoeste 53 Oeste 0 946.6 -1.6 13
2019-06-17 16:00:00 31.8 7 Sudeste 28 Sur 0 946.9 -2.1 14
2019-06-17 15:00:00 31.1 12 Sur 31 Sur 0 947.5 -2.4 14
2019-06-17 14:00:00 29.3 8 Sudoeste 21 Noroeste 0 948.2 -2.4 22
2019-06-17 13:00:00 27.4 6 Sudeste 17 Sur 0 949 -1.8 34
2019-06-17 12:00:00 23.4 4 Sudeste 13 Sudoeste 0 949.9 -1.1 48
2019-06-17 11:00:00 19.7 3 Sur 8 Oeste 0 950.6 -0.4 60
2019-06-17 10:00:00 16.5 3 Oeste 8 Oeste 0 950.8 -0.2 70
2019-06-17 09:00:00 13.5 0 Calma 8 Oeste 0 951 0.2 78
2019-06-17 08:00:00 10 3 Este 5 Este 0 951 0.1 90
2019-06-17 07:00:00 8.4 2 Nordeste 4 Nordeste 0 951 0 90
2019-06-17 06:00:00 9.1 3 Nordeste 5 Nordeste 0 950.8 -0.7 90
2019-06-17 05:00:00 10.1 4 Nordeste 7 Nordeste 0 950.9 -0.8 89
2019-06-17 04:00:00 10.9 0 Calma 7 Nordeste 0 951 -0.9 87
2019-06-17 03:00:00 12.2 0 Calma 8 Nordeste 0 951.5 -0.5 85
2019-06-17 02:00:00 13.6 3 Norte 5 Norte 0 951.7 -0.1 84
2019-06-17 01:00:00 15 2 Sur 10 Noroeste 0 951.9 0.6 79
2019-06-17 00:00:00 16.3 3 Noroeste 9 Noroeste 0 952 1.2 76
2019-06-16 23:00:00 17.5 4 Noroeste 10 Norte 0 951.8 1.8 68
2019-06-16 22:00:00 18.6 4 Norte 23 Norte 0 951.3 2 64
2019-06-16 21:00:00 20.2 11 Norte 39 Norte 0 950.8 1.3 59
2019-06-16 20:00:00 22.8 14 Norte 36 Nordeste 0 950 0.1 53
2019-06-16 19:00:00 26 19 Nordeste 35 Nordeste 0 949.3 -1.1 38
2019-06-16 18:00:00 27.2 15 Nordeste 30 Nordeste 0 949.5 -1.5 30
2019-06-16 17:00:00 27.7 13 Sudeste 28 Sur 0 949.9 -1.9 25
2019-06-16 16:00:00 28.1 7 Sudoeste 19 Nordeste 0 950.4 -2.1 22
2019-06-16 15:00:00 26.5 5 Nordeste 27 Sudeste 0 951 -2.4 24
2019-06-16 14:00:00 25.2 5 Sur 18 Sudeste 0 951.8 -2.1 26
2019-06-16 13:00:00 23 6 Sudeste 17 Sudeste 0 952.5 -1.9 33
2019-06-16 12:00:00 19.8 4 Sudeste 13 Sudeste 0 953.4 -1.2 42
2019-06-16 11:00:00 16.1 3 Este 9 Sudoeste 0 953.9 -0.6 51
2019-06-16 10:00:00 13 2 Sudoeste 7 Norte 0 954.4 -0.1 59
2019-06-16 09:00:00 10 2 Sudeste 15 Sudeste 0 954.6 0.2 71
2019-06-16 08:00:00 5.9 2 Este 4 Nordeste 0 954.5 0 87
2019-06-16 07:00:00 3.9 3 Este 4 Nordeste 0 954.5 -0.4 89
2019-06-16 06:00:00 4.5 0 Calma 7 Nordeste 0 954.4 -0.8 89
2019-06-16 05:00:00 5.1 3 Nordeste 6 Nordeste 0 954.5 -1.2 87
2019-06-16 04:00:00 6.1 2 Nordeste 5 Nordeste 0 954.9 -0.9 86
2019-06-16 03:00:00 7.2 2 Sur 8 Este 0 955.2 -0.8 84
2019-06-16 02:00:00 8.4 3 Nordeste 13 Nordeste 0 955.7 -0.2 78
2019-06-16 01:00:00 9.8 4 Sudoeste 11 Norte 0 955.8 0.6 75
2019-06-16 00:00:00 11 5 Noroeste 13 Norte 0 956 1.4 65
2019-06-15 23:00:00 11.7 5 Norte 17 Norte 0 955.9 1.9 71
2019-06-15 22:00:00 12.8 6 Nordeste 27 Nordeste 0 955.2 1.9 68
2019-06-15 21:00:00 14.8 11 Norte 35 Nordeste 0 954.6 1.7 60
2019-06-15 20:00:00 16.7 13 Norte 34 Norte 0 954 1.2 55
2019-06-15 19:00:00 18.2 16 Norte 35 Norte 0 953.3 0.5 52
2019-06-15 18:00:00 19.7 14 Nordeste 33 Nordeste 0 952.9 -0.2 48
2019-06-15 17:00:00 20.2 12 Nordeste 31 Nordeste 0 952.8 -0.4 45
2019-06-15 16:00:00 22.1 6 Este 21 Nordeste 0 952.8 -0.5 33
2019-06-15 15:00:00 20.7 12 Nordeste 25 Nordeste 0 953.1 -0.3 37
2019-06-15 14:00:00 20.3 7 Sur 16 Sur 0 953.2 -0.2 37
2019-06-15 13:00:00 19.9 5 Sudeste 16 Nordeste 0 953.3 0 37
2019-06-15 12:00:00 18.4 5 Sudeste 17 Sudeste 0 953.4 0.5 43
2019-06-15 11:00:00 15.8 3 Noroeste 11 Norte 0 953.4 1.1 53
2019-06-15 10:00:00 13.1 4 Noroeste 8 Noroeste 0 953.3 1.2 70
2019-06-15 09:00:00 11.1 3 Este 6 Este 0 952.9 1 80
2019-06-15 08:00:00 9.1 0 Calma 5 Nordeste 0 952.3 0.8 86
2019-06-15 07:00:00 9 2 Nordeste 10 Nordeste 0 952.1 0.9 87
2019-06-15 06:00:00 9.1 3 Nordeste 7 Nordeste 0 951.9 0.8 87
2019-06-15 05:00:00 9.3 2 Norte 13 Sudeste 0 951.5 0.6 86
2019-06-15 04:00:00 9.2 3 Este 7 Norte 0 951.2 0.2 86
2019-06-15 03:00:00 9.1 3 Norte 10 Nordeste 0 951.1 0.7 86
2019-06-15 02:00:00 10.1 2 Nordeste 7 Oeste 0 950.9 1 83
2019-06-15 01:00:00 11.1 3 Norte 12 Norte 0 951 2.3 81
2019-06-15 00:00:00 11.5 5 Norte 13 Nordeste 0 950.4 2.3 79
2019-06-14 23:00:00 12.4 6 Nordeste 14 Este 0 949.9 2.6 76
2019-06-14 22:00:00 12.4 10 Nordeste 27 Nordeste 0 948.7 1.8 79
2019-06-14 21:00:00 13.3 10 Norte 31 Nordeste 0 948.1 1.6 74
2019-06-14 20:00:00 13.9 15 Nordeste 31 Nordeste 0 947.3 1.7 71
2019-06-14 19:00:00 14.2 18 Nordeste 37 Nordeste 0 946.9 1.5 71
2019-06-14 18:00:00 15.8 18 Nordeste 39 Norte 0 946.5 1.3 65
2019-06-14 17:00:00 18 12 Norte 34 Nordeste 0 945.6 0.4 59
2019-06-14 16:00:00 17.6 15 Norte 35 Nordeste 0 945.4 0 57
2019-06-14 15:00:00 18.7 15 Nordeste 35 Nordeste 0 945.2 -0.7 55
2019-06-14 14:00:00 18.9 13 Norte 28 Nordeste 0 945.2 -0.9 53
2019-06-14 13:00:00 18 9 Norte 24 Norte 0 945.4 -0.7 55
2019-06-14 12:00:00 16.2 8 Norte 19 Nordeste 0 945.9 -0.2 59
2019-06-14 11:00:00 14.6 7 Norte 17 Norte 0 946.1 0 63
2019-06-14 10:00:00 13.4 6 Norte 15 Nordeste 0 946.1 0 67
2019-06-14 09:00:00 12.4 6 Nordeste 14 Nordeste 0 946.1 0.1 74
2019-06-14 08:00:00 11.3 3 Nordeste 8 Nordeste 0 946.1 0 78
2019-06-14 07:00:00 10.9 2 Nordeste 9 Norte 0 946.1 -0.3 78
2019-06-14 06:00:00 11 4 Norte 11 Norte 0 946 -1 77
2019-06-14 05:00:00 11.1 4 Nordeste 12 Norte 0 946.1 -1.3 74
2019-06-14 04:00:00 11.1 4 Norte 9 Norte 0 946.4 -1.3 70
2019-06-14 03:00:00 11.3 3 Nordeste 12 Este 0 947 -0.7 73
2019-06-14 02:00:00 11.3 6 Nordeste 12 Norte 0 947.4 0 77
2019-06-14 01:00:00 11.2 3 Norte 15 Nordeste 0 947.7 1.2 81
2019-06-14 00:00:00 11.2 10 Nordeste 20 Nordeste 0 947.7 1.9 82
2019-06-13 23:00:00 11.3 13 Nordeste 26 Nordeste 0 947.4 2.5 81
2019-06-13 22:00:00 11.7 12 Nordeste 26 Nordeste 0 946.5 2.5 77
2019-06-13 21:00:00 12.3 12 Nordeste 33 Nordeste 0 945.8 2.6 76
2019-06-13 20:00:00 13 17 Nordeste 36 Nordeste 0 944.9 2.7 75
2019-06-13 19:00:00 15.3 16 Norte 38 Nordeste 0 944 2 67
2019-06-13 18:00:00 17.5 17 Norte 47 Nordeste 0 943.2 1.1 61
2019-06-13 17:00:00 20 20 Norte 44 Nordeste 0 942.2 -0.9 54
2019-06-13 16:00:00 22.7 16 Norte 35 Sudeste 0 942 -1.9 42
2019-06-13 15:00:00 24.2 14 Sudeste 41 Sudeste 0 942.1 -2.6 29
2019-06-13 14:00:00 21.6 8 Sur 21 Este 0 943.1 -2 40
2019-06-13 13:00:00 19.7 7 Este 19 Sur 0 943.9 -1.4 47
2019-06-13 12:00:00 17.1 6 Este 13 Este 0 944.7 -0.7 53
2019-06-13 11:00:00 14.1 3 Sudoeste 12 Noroeste 0 945.1 -0.4 60
2019-06-13 10:00:00 12.8 5 Nordeste 10 Nordeste 0 945.3 -0.1 65
2019-06-13 09:00:00 9.6 3 Norte 6 Norte 0 945.4 0.1 77
2019-06-13 08:00:00 6.5 2 Norte 8 Nordeste 0 945.5 0.2 88
2019-06-13 07:00:00 6.1 4 Nordeste 13 Este 0 945.4 0 88
2019-06-13 06:00:00 7.3 4 Sudeste 11 Nordeste 0 945.3 -0.6 84
2019-06-13 05:00:00 8.3 4 Norte 11 Nordeste 0 945.3 -1.1 83
2019-06-13 04:00:00 9.2 4 Norte 11 Norte 0 945.4 -1.5 80
2019-06-13 03:00:00 9.6 5 Noroeste 11 Noroeste 0 945.9 -1.6 80
2019-06-13 02:00:00 10.2 3 Noroeste 17 Nordeste 0 946.4 -1.4 77
2019-06-13 01:00:00 10.6 8 Nordeste 22 Nordeste 0 946.9 -0.4 75
2019-06-13 00:00:00 10.6 3 Norte 10 Nordeste 0 947.5 0.6 76
2019-06-12 23:00:00 10.3 3 Norte 15 Nordeste 0 947.8 1.5 76
2019-06-12 22:00:00 11 9 Nordeste 24 Nordeste 0 947.3 1.4 71
2019-06-12 21:00:00 12.8 9 Nordeste 31 Nordeste 0 946.9 1.1 66
2019-06-12 20:00:00 15.1 19 Nordeste 39 Nordeste 0 946.3 0.3 55
2019-06-12 19:00:00 16.4 16 Norte 34 Norte 0 945.9 -0.4 50
2019-06-12 18:00:00 18.4 15 Nordeste 30 Nordeste 0 945.8 -0.9 43
2019-06-12 17:00:00 18 14 Nordeste 28 Nordeste 0 946 -1.2 41
2019-06-12 16:00:00 19.4 5 Norte 31 Sudeste 0 946.3 -1.4 28
2019-06-12 15:00:00 18.8 6 Este 17 Sudeste 0 946.7 -1.3 28
2019-06-12 14:00:00 17.7 4 Noroeste 17 Noroeste 0 947.2 -0.9 31
2019-06-12 13:00:00 16.1 9 Sudeste 28 Sur 0 947.7 -0.6 36
2019-06-12 12:00:00 15.1 6 Sudoeste 18 Sur 0 948 -0.3 45
2019-06-12 11:00:00 13.7 4 Sudeste 12 Sur 0 948.1 0 53
2019-06-12 10:00:00 10.5 4 Sur 10 Sudeste 0 948.3 0.2 66
2019-06-12 09:00:00 7.5 4 Sudoeste 10 Sudoeste 0 948.3 0.5 76
2019-06-12 08:00:00 4.7 4 Sudeste 7 Sur 0 948.1 0.2 91
2019-06-12 07:00:00 3.1 2 Sur 11 Sudeste 0 948.1 -0.1 91
2019-06-12 06:00:00 3.3 5 Sur 9 Sudeste 0 947.8 -0.7 89
2019-06-12 05:00:00 3.9 4 Sur 11 Sur 0 947.9 -0.8 88
2019-06-12 04:00:00 4.9 3 Sur 13 Sudeste 0 948.2 -0.8 85
2019-06-12 03:00:00 6.3 5 Sudeste 8 Sudeste 0 948.5 -0.8 80
2019-06-12 02:00:00 7.1 3 Sudeste 13 Sudoeste 0 948.7 -1.2 77
2019-06-12 01:00:00 8.6 6 Oeste 19 Oeste 0 949 -0.9 70
2019-06-12 00:00:00 9.1 5 Noroeste 23 Noroeste 0 949.3 -0.6 71
2019-06-11 23:00:00 9.8 6 Noroeste 19 Noroeste 0 949.9 0 70
2019-06-11 22:00:00 10.4 5 Oeste 27 Oeste 0 949.9 0.1 67
2019-06-11 21:00:00 11.6 5 Noroeste 27 Norte 0 949.9 0 58
2019-06-11 20:00:00 13.1 8 Noroeste 35 Noroeste 0 949.9 -0.1 54
2019-06-11 19:00:00 13.3 10 Noroeste 27 Oeste 0 949.8 -0.2 52
2019-06-11 18:00:00 12.7 6 Noroeste 28 Noroeste 0 949.9 -0.1 55
2019-06-11 17:00:00 14.1 11 Noroeste 31 Noroeste 0 950 0.1 53
2019-06-11 16:00:00 13.7 14 Noroeste 40 Noroeste 0 950 0 57
2019-06-11 15:00:00 11.5 13 Noroeste 41 Noroeste 0 950 0.3 64
2019-06-11 14:00:00 12 11 Noroeste 32 Oeste 0 949.9 0.4 61
2019-06-11 13:00:00 11.1 13 Oeste 32 Norte 0 950 0.5 62
2019-06-11 12:00:00 11.6 13 Noroeste 36 Noroeste 0 949.7 0.6 61
2019-06-11 11:00:00 10.7 12 Noroeste 27 Noroeste 0 949.5 0.8 64
2019-06-11 10:00:00 9 6 Oeste 18 Noroeste 0 949.5 1.4 72
2019-06-11 09:00:00 8.9 5 Oeste 18 Noroeste 0 949.1 0.8 73
2019-06-11 08:00:00 8.3 4 Noroeste 12 Oeste 0 948.7 0.1 85
2019-06-11 07:00:00 8.1 0 Calma 8 Oeste 0 948.1 -0.9 88
2019-06-11 06:00:00 8 3 Sur 7 Sur 0.2 948.3 -1 88
2019-06-11 05:00:00 8.2 3 Sudeste 9 Oeste 0 948.6 -1 88
2019-06-11 04:00:00 8.4 3 Noroeste 12 Oeste 0 949 -1.3 87
2019-06-11 03:00:00 8.6 2 Sudoeste 6 Oeste 0 949.3 -1.4 89
2019-06-11 02:00:00 8.4 2 Sudoeste 15 Sudoeste 0.2 949.6 -1.2 89
2019-06-11 01:00:00 8.3 2 Noroeste 7 Sudoeste 1.2 950.3 -0.3 88
2019-06-11 00:00:00 8.6 3 Noroeste 7 Noroeste 0.8 950.7 -0.3 86
2019-06-10 23:00:00 9.3 3 Oeste 6 Oeste 0.4 950.8 0 85
2019-06-10 22:00:00 9.8 4 Norte 8 Norte 0.4 950.6 -0.2 86
2019-06-10 21:00:00 10.6 2 Noroeste 8 Nordeste 0.8 951 0.5 85
2019-06-10 20:00:00 10.9 5 Norte 16 Nordeste 0.2 950.8 -0.2 81
2019-06-10 19:00:00 11.7 14 Nordeste 27 Nordeste 0 950.8 -0.3 74
2019-06-10 18:00:00 14.3 12 Nordeste 26 Nordeste 0 950.5 -1.3 58
2019-06-10 17:00:00 15.3 8 Nordeste 22 Nordeste 0 951 -1.3 49
2019-06-10 16:00:00 16.2 7 Norte 19 Norte 0 951.1 -1.6 47
2019-06-10 15:00:00 15.8 4 Noroeste 19 Noroeste 0 951.8 -1.2 50
2019-06-10 14:00:00 14.8 8 Oeste 16 Noroeste 0 952.3 -0.9 50
2019-06-10 13:00:00 13.8 3 Oeste 15 Nordeste 0 952.7 -0.6 54
2019-06-10 12:00:00 12.6 3 Nordeste 14 Norte 0 953 -0.4 59
2019-06-10 11:00:00 11.9 6 Nordeste 12 Norte 0 953.2 0.1 60
2019-06-10 10:00:00 12.2 7 Nordeste 21 Nordeste 0 953.3 0.4 58
2019-06-10 09:00:00 10.6 6 Norte 14 Norte 0 953.4 0.9 69
2019-06-10 08:00:00 8.8 5 Nordeste 12 Norte 0 953.1 -0.1 80
2019-06-10 07:00:00 7.5 2 Sudoeste 8 Norte 0 952.9 -0.4 83
2019-06-10 06:00:00 8 2 Nordeste 9 Norte 0 952.5 -1.5 84
2019-06-10 05:00:00 8.6 4 Norte 10 Norte 0 953.2 -1.2 85
2019-06-10 04:00:00 9.5 4 Norte 19 Norte 0 953.3 -1.2 83
2019-06-10 03:00:00 9.9 8 Nordeste 16 Nordeste 0 954 -0.6 83
2019-06-10 02:00:00 10 7 Nordeste 19 Nordeste 0 954.4 0.1 82
2019-06-10 01:00:00 10.5 6 Nordeste 19 Nordeste 0 954.5 1.2 80
2019-06-10 00:00:00 11 6 Nordeste 17 Nordeste 0 954.6 1.2 78
2019-06-09 23:00:00 10.8 4 Norte 27 Nordeste 0 954.3 1.4 80
2019-06-09 22:00:00 11.2 14 Nordeste 28 Norte 0 953.3 1.4 78
2019-06-09 21:00:00 11.8 10 Nordeste 27 Nordeste 0 953.4 2.1 76
2019-06-09 20:00:00 12.5 10 Nordeste 36 Nordeste 0 952.9 2.2 74
2019-06-09 19:00:00 13.4 13 Norte 34 Nordeste 0 951.9 1.4 72
2019-06-09 18:00:00 15.6 15 Nordeste 39 Norte 0 951.3 0.6 62
2019-06-09 17:00:00 16.2 14 Norte 37 Nordeste 0 950.7 -0.3 64
2019-06-09 16:00:00 17.4 19 Nordeste 39 Nordeste 0 950.5 -0.6 57
2019-06-09 15:00:00 19 9 Oeste 22 Noroeste 0 950.7 -0.7 49
2019-06-09 14:00:00 17.7 4 Norte 19 Sudoeste 0 951 -0.4 54
2019-06-09 13:00:00 16.5 3 Nordeste 12 Norte 0 951.1 -0.3 58
2019-06-09 12:00:00 15.3 3 Norte 12 Nordeste 0 951.4 0 61
2019-06-09 11:00:00 14.1 5 Nordeste 12 Nordeste 0 951.4 0.2 66
2019-06-09 10:00:00 13.1 4 Nordeste 10 Norte 0 951.4 0.2 68
2019-06-09 09:00:00 12.4 4 Norte 11 Norte 0 951.4 0.2 75
2019-06-09 08:00:00 11.5 3 Norte 10 Nordeste 0 951.2 -0.3 79
2019-06-09 07:00:00 11 4 Norte 14 Norte 0 951.2 -0.9 79
2019-06-09 06:00:00 11.1 5 Norte 12 Norte 0 951.2 -1.5 79
2019-06-09 05:00:00 11.3 5 Este 19 Sudeste 0 951.5 -1.7 76
2019-06-09 04:00:00 11.4 5 Nordeste 14 Norte 0 952.1 -1.7 74
2019-06-09 03:00:00 11.3 4 Nordeste 15 Norte 0 952.7 -1.3 77
2019-06-09 02:00:00 11.2 9 Nordeste 20 Nordeste 0 953.2 -0.8 79
2019-06-09 01:00:00 11.6 6 Norte 20 Norte 0 953.8 0.5 75
2019-06-09 00:00:00 11.8 9 Norte 21 Norte 0 954 1.1 77
2019-06-08 23:00:00 12 9 Norte 24 Norte 0 954 1.4 79
2019-06-08 22:00:00 12.3 12 Nordeste 32 Nordeste 0 953.3 1.1 77
2019-06-08 21:00:00 13.7 12 Norte 31 Norte 0 952.9 0.7 71
2019-06-08 20:00:00 15.8 12 Norte 38 Nordeste 0 952.6 0.4 64
2019-06-08 19:00:00 17.8 16 Norte 36 Norte 0 952.2 -0.6 56
2019-06-08 18:00:00 20.2 15 Nordeste 38 Nordeste 0 952.2 -1.3 47
2019-06-08 17:00:00 20.9 17 Nordeste 32 Este 0 952.2 -2.1 45
2019-06-08 16:00:00 20.9 11 Nordeste 30 Nordeste 0 952.8 -2.3 42
2019-06-08 15:00:00 20.3 11 Nordeste 26 Norte 0 953.5 -2.4 42
2019-06-08 14:00:00 19.5 9 Norte 24 Norte 0 954.3 -2.2 44
2019-06-08 13:00:00 18 8 Norte 21 Norte 0 955.1 -2 44
2019-06-08 12:00:00 16.1 4 Noroeste 14 Oeste 0 955.9 -1.3 51
2019-06-08 11:00:00 14.6 4 Sudeste 12 Oeste 0 956.5 -0.8 53
2019-06-08 10:00:00 12 3 Sudeste 9 Sudeste 0 957.1 0 65
2019-06-08 09:00:00 8.9 0 Calma 4 Sudeste 0 957.2 0.5 80
2019-06-08 08:00:00 6.5 0 Calma 4 Oeste 0 957.3 0.7 87
2019-06-08 07:00:00 5.3 0 Calma 4 Sudeste 0 957.1 0.6 89
2019-06-08 06:00:00 5.8 0 Calma 5 Sudeste 0 956.7 0.2 87
2019-06-08 05:00:00 6.7 3 Sur 7 Sur 0 956.6 0.3 84
2019-06-08 04:00:00 8.6 3 Sur 7 Sudeste 0 956.5 0.3 79
2019-06-08 03:00:00 9.9 2 Sudeste 5 Este 0 956.5 0.5 73
2019-06-08 02:00:00 10.2 5 Este 15 Nordeste 0 956.3 0.9 68
2019-06-08 01:00:00 10.4 3 Norte 14 Nordeste 0 956.2 1.6 65
2019-06-08 00:00:00 10.5 5 Norte 14 Norte 0 956 2.2 63
2019-06-07 23:00:00 10.3 4 Norte 15 Norte 0 955.4 2.4 68
2019-06-07 22:00:00 11 7 Nordeste 23 Nordeste 0 954.6 2.5 66
2019-06-07 21:00:00 13.1 10 Nordeste 25 Nordeste 0 953.8 2.5 59
2019-06-07 20:00:00 15.3 14 Nordeste 26 Nordeste 0 953 2.1 50
2019-06-07 19:00:00 16.3 10 Nordeste 27 Nordeste 0 952.1 1.8 47
2019-06-07 18:00:00 16.8 14 Norte 28 Norte 0 951.3 2.4 44
2019-06-07 17:00:00 16.7 7 Norte 25 Oeste 0 950.9 2.1 42
2019-06-07 16:00:00 15.7 14 Norte 31 Norte 0 950.3 2.1 44
2019-06-07 15:00:00 18.5 10 Sudoeste 29 Sudoeste 0 948.9 1.6 29
2019-06-07 14:00:00 17.3 15 Sudoeste 34 Sudoeste 0 948.8 2.7 34
2019-06-07 13:00:00 16 13 Sudoeste 38 Sudoeste 0 948.2 2.9 41
2019-06-07 12:00:00 15.3 14 Sudoeste 44 Sudoeste 0 947.3 2.7 41
2019-06-07 11:00:00 13.6 22 Sudoeste 52 Oeste 0 946.1 2.5 47
2019-06-07 10:00:00 12.6 17 Sudoeste 40 Oeste 0 945.3 2.3 52
2019-06-07 09:00:00 11.1 18 Sudoeste 41 Oeste 0 944.6 2.6 57
2019-06-07 08:00:00 10 13 Sudoeste 36 Sur 0 943.6 2.7 63
2019-06-07 07:00:00 9.5 5 Sudoeste 24 Sur 0 943 2.7 67
2019-06-07 06:00:00 9.5 9 Sudoeste 40 Sudoeste 0 942 2.4 66
2019-06-07 05:00:00 9.9 15 Sudoeste 45 Sudoeste 0 940.9 1.3 65
2019-06-07 04:00:00 10.4 12 Sudoeste 43 Sur 0 940.3 0.4 64
2019-06-07 03:00:00 11.3 19 Sur 44 Sudoeste 0 939.6 0.5 63
2019-06-07 02:00:00 10.8 20 Sudoeste 61 Sudoeste 0.2 939.6 2.3 61
2019-06-07 01:00:00 10 21 Sudoeste 52 Sudoeste 0.6 939.9 1.3 74
2019-06-07 00:00:00 13.1 31 Oeste 67 Sudeste 0.2 939.1 2.5 73
2019-06-06 23:00:00 15.8 18 Sur 65 Sudoeste 1 937.3 1.9 57
2019-06-06 22:00:00 14.6 8 Sudoeste 49 Sudoeste 0 938.6 2.6 72
2019-06-06 21:00:00 20.2 23 Sudoeste 59 Sudoeste 0 936.6 -0.5 34
2019-06-06 20:00:00 22.3 14 Sur 39 Sur 0 935.4 -3 23
2019-06-06 19:00:00 22.9 12 Sur 44 Sur 0 936 -3.8 21
2019-06-06 18:00:00 23.3 19 Sur 57 Sur 0 937.1 -4 20
2019-06-06 17:00:00 22.9 23 Sur 59 Sur 0 938.4 -3.7 22
2019-06-06 16:00:00 22.6 19 Sur 61 Sudoeste 0 939.8 -3.4 21
2019-06-06 15:00:00 21.4 21 Sur 42 Sudoeste 0 941.1 -3.3 27
2019-06-06 14:00:00 18.5 14 Sur 44 Sudeste 0 942.1 -3.2 35
2019-06-06 13:00:00 16.4 4 Sudoeste 27 Sur 0 943.2 -2.9 44
2019-06-06 12:00:00 16.3 10 Sur 37 Sudeste 0 944.4 -2.4 45
2019-06-06 11:00:00 14.2 5 Sudeste 17 Sudeste 0 945.3 -2 60
2019-06-06 10:00:00 10.7 4 Sur 12 Sur 0 946.1 -1.3 77
2019-06-06 09:00:00 9.3 3 Sudoeste 7 Sudeste 0 946.8 -0.7 79
2019-06-06 08:00:00 6.7 0 Calma 5 Este 0 947.3 -0.5 90
2019-06-06 07:00:00 6 0 Calma 3 Este 0 947.4 -0.6 90
2019-06-06 06:00:00 7.2 0 Calma 5 Sudoeste 0 947.5 -0.8 89
2019-06-06 05:00:00 7.8 0 Calma 5 Este 0 947.8 -0.7 87
2019-06-06 04:00:00 8.4 2 Norte 5 Este 0 948 -0.8 85
2019-06-06 03:00:00 8.5 2 Noroeste 6 Noroeste 0 948.3 -0.7 83
2019-06-06 02:00:00 8.6 2 Sudoeste 5 Sudoeste 0 948.5 -0.1 84
2019-06-06 01:00:00 8.6 2 Este 9 Noroeste 0.2 948.8 0.5 81
2019-06-06 00:00:00 9.3 2 Oeste 12 Norte 0 949 1.3 74
2019-06-05 23:00:00 10.3 3 Norte 15 Norte 0 948.6 1.1 63
2019-06-05 22:00:00 10.8 5 Norte 21 Norte 0 948.3 0.8 55
2019-06-05 21:00:00 11.6 8 Norte 18 Nordeste 0 947.7 0.6 56
2019-06-05 20:00:00 12.4 3 Sudoeste 17 Oeste 0 947.5 0.5 58
2019-06-05 19:00:00 11.9 6 Noroeste 26 Noroeste 0 947.5 0.6 65
2019-06-05 18:00:00 13.2 8 Norte 18 Norte 0 947.1 0.4 54
2019-06-05 17:00:00 14.5 7 Norte 26 Nordeste 0 947 0.6 54
2019-06-05 16:00:00 14.3 11 Noroeste 32 Norte 0 946.9 0.7 58
2019-06-05 15:00:00 13.7 8 Noroeste 33 Norte 0 946.7 1.1 58
2019-06-05 14:00:00 14.2 15 Norte 32 Noroeste 0 946.4 1.3 58
2019-06-05 13:00:00 13.7 12 Noroeste 30 Noroeste 0 946.2 1.4 63
2019-06-05 12:00:00 12.2 14 Noroeste 33 Noroeste 0 945.6 1.1 66
2019-06-05 11:00:00 10.7 11 Oeste 29 Noroeste 0 945.1 0.8 75
2019-06-05 10:00:00 9.9 4 Noroeste 12 Norte 0.2 944.8 0.9 86
2019-06-05 09:00:00 9.3 2 Sudeste 8 Sudeste 1.6 944.5 0.1 89
2019-06-05 08:00:00 9 2 Sur 7 Sudoeste 1.6 944.3 0.1 90
2019-06-05 07:00:00 8.8 3 Oeste 12 Oeste 2 943.9 -0.3 91
2019-06-05 06:00:00 9.2 3 Sudoeste 11 Sudoeste 3.6 944.4 -0.3 91
2019-06-05 05:00:00 9.4 4 Norte 12 Noroeste 0.4 944.2 -1.3 90
2019-06-05 04:00:00 9.6 3 Oeste 10 Nordeste 1 944.2 -1.3 87
2019-06-05 03:00:00 9.9 3 Noroeste 8 Norte 1 944.7 -0.9 87
2019-06-05 02:00:00 10.1 5 Nordeste 18 Nordeste 0.4 945.5 0 87
2019-06-05 01:00:00 11 4 Norte 13 Nordeste 0.2 945.5 0.5 88
2019-06-05 00:00:00 11.3 5 Nordeste 10 Norte 0.6 945.6 0.6 85
2019-06-04 23:00:00 11.7 6 Nordeste 17 Nordeste 0.4 945.5 0.7 82
2019-06-04 22:00:00 12.1 10 Nordeste 26 Nordeste 0 945 1.2 76
2019-06-04 21:00:00 12.8 12 Nordeste 33 Nordeste 0 945 1.9 71
2019-06-04 20:00:00 14.5 12 Nordeste 33 Norte 0 944.8 2.4 65
2019-06-04 19:00:00 16.2 14 Norte 38 Nordeste 0 943.8 1.1 65
2019-06-04 18:00:00 18.4 15 Norte 42 Norte 0 943.1 0 60
2019-06-04 17:00:00 26.3 12 Sudoeste 41 Sudoeste 0 942.4 -1 26
2019-06-04 16:00:00 25.7 14 Sudoeste 38 Sur 0 942.7 -0.5 28
2019-06-04 15:00:00 25 14 Sudoeste 41 Oeste 0 943.1 -0.3 34
2019-06-04 14:00:00 24.3 14 Sudoeste 44 Oeste 0 943.4 0 33
2019-06-04 13:00:00 23.5 14 Sudoeste 35 Oeste 0 943.2 -0.5 36
2019-06-04 12:00:00 22 16 Sudoeste 37 Sudoeste 0 943.4 -0.2 41
2019-06-04 11:00:00 19.2 9 Sudoeste 32 Oeste 0 943.4 -0.3 51
2019-06-04 10:00:00 17.8 9 Oeste 34 Sudeste 0 943.7 0.1 59
2019-06-04 09:00:00 16.9 3 Norte 10 Este 0 943.6 -0.1 61
2019-06-04 08:00:00 11.7 4 Este 9 Este 0 943.7 -0.1 86
2019-06-04 07:00:00 10 3 Noroeste 12 Nordeste 0 943.6 -0.5 90
2019-06-04 06:00:00 10.1 3 Norte 10 Nordeste 0 943.7 -0.9 89
2019-06-04 05:00:00 10.6 0 Calma 15 Sudoeste 0 943.8 -1.8 87
2019-06-04 04:00:00 11.1 3 Este 6 Este 0 944.1 -2.2 85
2019-06-04 03:00:00 12.1 3 Norte 8 Norte 0 944.6 -2.3 83
2019-06-04 02:00:00 13.5 4 Nordeste 7 Nordeste 0 945.6 -1.6 79
2019-06-04 01:00:00 15.1 3 Este 13 Norte 0 946.3 -0.7 76
2019-06-04 00:00:00 16.5 5 Norte 11 Norte 0 946.9 0.2 67
2019-06-03 23:00:00 17.4 4 Noroeste 16 Nordeste 0 947.2 1.1 66
2019-06-03 22:00:00 18.4 6 Norte 22 Norte 0 947 1 67
2019-06-03 21:00:00 19.9 11 Nordeste 30 Norte 0 946.7 0.6 63
2019-06-03 20:00:00 22.2 15 Norte 33 Norte 0 946.1 -0.4 55
2019-06-03 19:00:00 25.2 16 Nordeste 38 Nordeste 0 946 -1 44
2019-06-03 18:00:00 26.7 17 Nordeste 36 Nordeste 0 946.1 -1.5 39
2019-06-03 17:00:00 27.4 15 Norte 32 Nordeste 0 946.5 -2.1 36
2019-06-03 16:00:00 28.6 10 Norte 26 Norte 0 947 -2.5 31
2019-06-03 15:00:00 28.3 5 Nordeste 15 Nordeste 0 947.6 -2.3 28
2019-06-03 14:00:00 25.5 7 Norte 17 Nordeste 0 948.6 -2 34
2019-06-03 13:00:00 24.2 5 Sudoeste 17 Sur 0 949.5 -1.5 36
2019-06-03 12:00:00 21.9 5 Sudeste 14 Sur 0 949.9 -1.1 42
2019-06-03 11:00:00 19.3 4 Noroeste 17 Sudeste 0 950.6 -0.5 44
2019-06-03 10:00:00 16.6 3 Norte 9 Norte 0 951 0.6 56
2019-06-03 09:00:00 14.7 2 Sudeste 7 Sur 0 951 0.1 66
2019-06-03 08:00:00 12.1 2 Este 5 Noroeste 0 951.1 0.4 75
2019-06-03 07:00:00 11.1 3 Sudeste 8 Sudeste 0 950.4 -0.5 77
2019-06-03 06:00:00 11.7 2 Noroeste 11 Norte 0 950.9 -0.1 71
2019-06-03 05:00:00 11.6 3 Norte 7 Nordeste 0 950.7 -0.5 70
2019-06-03 04:00:00 11.6 0 Calma 10 Norte 0 950.9 -0.6 72
2019-06-03 03:00:00 11.7 2 Norte 5 Nordeste 0 951 -0.8 69
2019-06-03 02:00:00 12.9 2 Este 10 Noroeste 0 951.2 -0.2 64
2019-06-03 01:00:00 14.8 5 Norte 15 Norte 0 951.5 0.5 58
2019-06-03 00:00:00 16.2 5 Norte 18 Nordeste 0 951.8 1.1 49
2019-06-02 23:00:00 18.6 9 Nordeste 22 Norte 0 951.4 1.2 34
2019-06-02 22:00:00 19.5 6 Nordeste 19 Norte 0 951 1.5 35
2019-06-02 21:00:00 20.9 7 Nordeste 22 Nordeste 0 950.7 1.4 40
2019-06-02 20:00:00 22.5 12 Nordeste 32 Nordeste 0 950.2 1.4 42
2019-06-02 19:00:00 24.7 14 Nordeste 32 Nordeste 0 949.5 0.6 40
2019-06-02 18:00:00 26.7 13 Norte 32 Nordeste 0 949.3 0 36
2019-06-02 17:00:00 32.4 12 Oeste 33 Oeste 0 948.8 -1 14
2019-06-02 16:00:00 31.5 17 Sudoeste 42 Sudoeste 0 948.9 -1.8 16
2019-06-02 15:00:00 31.8 13 Sudoeste 38 Sudoeste 0 949.3 -1.8 17
2019-06-02 14:00:00 31.3 9 Sudeste 26 Sudeste 0 949.8 -1.7 24
2019-06-02 13:00:00 29.2 5 Sur 17 Sudeste 0 950.7 -1.1 26
2019-06-02 12:00:00 26.8 7 Sudeste 19 Sudeste 0 951.1 -0.7 32
2019-06-02 11:00:00 23.2 5 Sudeste 12 Sudeste 0 951.5 -0.3 42
2019-06-02 10:00:00 19.8 3 Sudoeste 8 Este 0 951.8 0 55
2019-06-02 09:00:00 16.5 0 Calma 6 Este 0 951.8 0.2 69
2019-06-02 08:00:00 12.6 3 Nordeste 5 Nordeste 0 951.8 0.4 79
2019-06-02 07:00:00 10.6 3 Nordeste 6 Norte 0 951.8 0.4 85
2019-06-02 06:00:00 11.4 2 Nordeste 6 Este 0 951.6 0 82
2019-06-02 05:00:00 13 5 Norte 12 Norte 0 951.4 -0.1 78
2019-06-02 04:00:00 13.3 5 Nordeste 8 Nordeste 0 951.4 -0.1 79
2019-06-02 03:00:00 14.5 3 Norte 10 Nordeste 0 951.6 -0.1 76
2019-06-02 02:00:00 15.5 3 Norte 7 Nordeste 0 951.5 0 73
2019-06-02 01:00:00 16.8 2 Norte 14 Sudoeste 0 951.5 0.6 70
2019-06-02 00:00:00 18.7 0 Calma 14 Sudeste 0 951.7 1.2 64
2019-06-01 23:00:00 21.6 2 Sudoeste 9 Nordeste 0 951.5 1.3 54
2019-06-01 22:00:00 25.3 5 Nordeste 19 Nordeste 0 950.9 1 40
2019-06-01 21:00:00 29.1 8 Nordeste 26 Nordeste 0 950.5 0.2 31
2019-06-01 20:00:00 31.7 10 Este 33 Nordeste 0 950.2 -0.5 19
2019-06-01 19:00:00 32.6 17 Este 32 Nordeste 0 949.9 -1.5 19
2019-06-01 18:00:00 33.8 8 Sudeste 22 Sudeste 0 950.3 -1.6 16
2019-06-01 17:00:00 33.8 4 Sudeste 18 Sur 0 950.7 -1.9 16
2019-06-01 16:00:00 33.4 7 Este 19 Este 0 951.4 -2.1 16
2019-06-01 15:00:00 32.3 5 Sur 21 Sudeste 0 951.9 -2 21
2019-06-01 14:00:00 30.8 7 Sudeste 19 Sur 0 952.6 -1.7 26
2019-06-01 13:00:00 28.6 9 Sudeste 22 Este 0 953.5 -1.1 32
2019-06-01 12:00:00 25.8 7 Sudeste 20 Sudeste 0 953.9 -0.8 37
2019-06-01 11:00:00 22.5 5 Sudeste 18 Sudeste 0 954.3 -0.6 47
2019-06-01 10:00:00 18.3 0 Calma 8 Sudoeste 0 954.6 0.2 61
2019-06-01 09:00:00 14.8 2 Sudoeste 8 Oeste 0 954.7 0.5 72
2019-06-01 08:00:00 11.1 0 Calma 15 Sudeste 0 954.9 0.7 84
2019-06-01 07:00:00 8.7 4 Nordeste 8 Nordeste 0 954.4 0.2 89
2019-06-01 06:00:00 9.3 3 Este 6 Nordeste 0 954.2 -0.2 88
2019-06-01 05:00:00 10.3 0 Calma 5 Nordeste 0 954.2 -0.3 87
2019-06-01 04:00:00 11.3 3 Norte 12 Sudeste 0 954.2 -0.5 86
2019-06-01 03:00:00 12.4 2 Este 11 Norte 0 954.4 -0.4 83
2019-06-01 02:00:00 13.6 0 Calma 8 Nordeste 0 954.5 -0.2 80
2019-06-01 01:00:00 15 3 Norte 7 Nordeste 0 954.7 0.7 77
2019-06-01 00:00:00 17.3 0 Calma 6 Norte 0 954.8 1 68
2019-05-31 23:00:00 19.8 2 Sur 9 Norte 0 954.7 0.9 62
2019-05-31 22:00:00 23.4 6 Norte 19 Nordeste 0 954 0.2 48
2019-05-31 21:00:00 26.2 10 Nordeste 27 Nordeste 0 953.8 -0.1 40
2019-05-31 20:00:00 28.5 11 Nordeste 29 Nordeste 0 953.8 -0.6 33
2019-05-31 19:00:00 29.8 12 Nordeste 27 Nordeste 0 953.8 -1.2 24
2019-05-31 18:00:00 31.2 8 Norte 20 Oeste 0 953.9 -1.5 21
2019-05-31 17:00:00 31 5 Noroeste 16 Nordeste 0 954.4 -1.6 13
2019-05-31 16:00:00 30 8 Noroeste 19 Noroeste 0 955 -1.5 14
2019-05-31 15:00:00 30.1 7 Este 15 Nordeste 0 955.4 -1.4 14
2019-05-31 14:00:00 28.4 5 Sur 15 Sur 0 956 -1.3 18
2019-05-31 13:00:00 26.8 4 Este 15 Este 0 956.5 -1.1 30
2019-05-31 12:00:00 23.2 3 Sudeste 10 Sudeste 0 956.8 -1.1 39
2019-05-31 11:00:00 20.5 5 Sudeste 10 Sur 0 957.3 -0.8 48
2019-05-31 10:00:00 16.5 0 Calma 7 Este 0 957.6 -0.4 62
2019-05-31 09:00:00 12.5 3 Nordeste 8 Este 0 957.9 0.1 74
2019-05-31 08:00:00 8.3 3 Nordeste 14 Sudeste 0 958.1 0.1 85
2019-05-31 07:00:00 5.8 2 Norte 5 Nordeste 0 958 0 89
2019-05-31 06:00:00 6.4 0 Calma 4 Nordeste 0 957.8 -0.5 88
2019-05-31 05:00:00 7.3 3 Nordeste 4 Nordeste 0 958 -0.7 87
2019-05-31 04:00:00 8.5 2 Este 6 Nordeste 0 958 -1 86
2019-05-31 03:00:00 9.8 2 Nordeste 7 Nordeste 0 958.3 -0.7 83
2019-05-31 02:00:00 11.1 4 Noroeste 12 Nordeste 0 958.7 -0.1 80
2019-05-31 01:00:00 12.2 2 Nordeste 7 Norte 0 959 0.9 75
2019-05-31 00:00:00 14.1 3 Norte 12 Sudeste 0 959 1.4 68
2019-05-30 23:00:00 16.2 5 Nordeste 12 Nordeste 0 958.8 1.4 59
2019-05-30 22:00:00 19.4 6 Norte 17 Norte 0 958.1 0.6 48
2019-05-30 21:00:00 22.8 8 Nordeste 23 Nordeste 0 957.6 0.1 44
2019-05-30 20:00:00 24.9 9 Norte 27 Nordeste 0 957.4 -0.3 38
2019-05-30 19:00:00 26.2 13 Nordeste 30 Nordeste 0 957.5 -0.6 32
2019-05-30 18:00:00 27.5 8 Nordeste 24 Nordeste 0 957.5 -0.8 26
2019-05-30 17:00:00 27.3 9 Nordeste 29 Nordeste 0 957.7 -1.1 23
2019-05-30 16:00:00 26.9 9 Norte 26 Norte 0 958.1 -1.1 28
2019-05-30 15:00:00 25.9 9 Nordeste 24 Nordeste 0 958.3 -1.3 29
2019-05-30 14:00:00 24.1 5 Oeste 13 Oeste 0 958.8 -1.3 36
2019-05-30 13:00:00 22 3 Noroeste 12 Sudoeste 0 959.2 -1.3 45
2019-05-30 12:00:00 19.4 3 Sudeste 9 Sudeste 0 959.6 -1 52
2019-05-30 11:00:00 14.9 3 Noroeste 8 Norte 0 960.1 -0.3 66
2019-05-30 10:00:00 10.8 2 Sudoeste 8 Noroeste 0 960.5 0.5 80
2019-05-30 09:00:00 7.2 0 Calma 4 Sudeste 0 960.6 0.8 93
2019-05-30 08:00:00 5.5 2 Sur 5 Este 0 960.4 0.9 92
2019-05-30 07:00:00 4.8 3 Este 7 Nordeste 0 960 0.3 92
2019-05-30 06:00:00 4.4 3 Norte 6 Nordeste 0 959.8 0 91
2019-05-30 05:00:00 5 0 Calma 8 Nordeste 0 959.5 -0.6 90
2019-05-30 04:00:00 5.6 3 Nordeste 7 Norte 0 959.7 -0.5 90
2019-05-30 03:00:00 6.5 0 Calma 4 Nordeste 0 959.8 -0.4 89
2019-05-30 02:00:00 7.5 0 Calma 6 Nordeste 0 960.1 0.1 88
2019-05-30 01:00:00 8.7 0 Calma 6 Nordeste 0 960.2 0.9 86
2019-05-30 00:00:00 10.2 0 Calma 4 Sur 0 960.2 1.2 83
2019-05-29 23:00:00 12 2 Norte 6 Nordeste 0 960 1.5 77
2019-05-29 22:00:00 14.3 2 Norte 22 Nordeste 0 959.3 0.8 69
2019-05-29 21:00:00 17.2 9 Este 22 Nordeste 0 959 0.5 57
2019-05-29 20:00:00 18.3 12 Nordeste 28 Nordeste 0 958.5 -0.4 53
2019-05-29 19:00:00 18.4 15 Nordeste 30 Nordeste 0 958.5 -0.4 51
2019-05-29 18:00:00 19.3 10 Nordeste 24 Norte 0 958.5 -0.8 49
2019-05-29 17:00:00 19.5 8 Este 26 Nordeste 0 958.9 -0.5 48
2019-05-29 16:00:00 18.3 8 Este 20 Este 0 958.9 -0.7 51
2019-05-29 15:00:00 15.9 6 Noroeste 26 Este 0 959.3 -0.1 59
2019-05-29 14:00:00 15 6 Norte 18 Norte 0 959.4 0.4 67
2019-05-29 13:00:00 13.4 3 Nordeste 9 Sur 0 959.6 0.8 68
2019-05-29 12:00:00 13 3 Este 15 Nordeste 0 959.4 1.2 68
2019-05-29 11:00:00 13.3 6 Nordeste 14 Noroeste 0 959 1.3 62
2019-05-29 10:00:00 12 6 Noroeste 19 Noroeste 0 958.8 1.5 66
2019-05-29 09:00:00 11.6 5 Noroeste 19 Noroeste 0 958.2 1.1 65
2019-05-29 08:00:00 10.7 5 Oeste 14 Oeste 0 957.7 0.6 67
2019-05-29 07:00:00 10.2 4 Oeste 10 Oeste 0 957.3 0.1 69
2019-05-29 06:00:00 9.6 2 Sur 7 Sudoeste 0 957.1 -0.2 71
2019-05-29 05:00:00 9.6 4 Sudoeste 7 Sur 0 957.1 -0.2 72
2019-05-29 04:00:00 10.1 2 Noroeste 13 Noroeste 0 957.2 0 70
2019-05-29 03:00:00 10.4 5 Noroeste 24 Noroeste 0 957.3 0.1 68
2019-05-29 02:00:00 10.5 5 Noroeste 10 Noroeste 0 957.3 0.4 68
2019-05-29 01:00:00 10.3 3 Noroeste 9 Norte 0 957.2 0.9 69
2019-05-29 00:00:00 10 4 Norte 14 Sudoeste 0 957.2 1.1 68
2019-05-28 23:00:00 10.6 5 Norte 24 Noroeste 0 956.9 1.1 66
2019-05-28 22:00:00 11.6 8 Norte 24 Noroeste 0 956.3 1 59
2019-05-28 21:00:00 12.4 9 Noroeste 23 Norte 0 956.1 0.9 54
2019-05-28 20:00:00 13.7 9 Norte 29 Oeste 0 955.8 0.8 51
2019-05-28 19:00:00 15.6 10 Noroeste 27 Noroeste 0 955.3 0.4 45
2019-05-28 18:00:00 14.6 9 Norte 38 Oeste 0 955.2 0.6 47
2019-05-28 17:00:00 15.5 9 Noroeste 27 Noroeste 0 955 0.8 49
2019-05-28 16:00:00 13.7 11 Noroeste 28 Noroeste 0 954.9 1 56
2019-05-28 15:00:00 14.5 12 Noroeste 36 Norte 0 954.6 0.6 53
2019-05-28 14:00:00 14.6 9 Noroeste 26 Norte 0 954.2 0.5 53
2019-05-28 13:00:00 15.3 10 Norte 27 Norte 0 953.9 0.4 49
2019-05-28 12:00:00 14 10 Noroeste 25 Norte 0 954 0.9 54
2019-05-28 11:00:00 12.1 6 Noroeste 24 Norte 0 953.7 0.6 64
2019-05-28 10:00:00 11.4 4 Noroeste 15 Oeste 0 953.5 0.9 67
2019-05-28 09:00:00 10.6 3 Sur 8 Sur 0 953.1 0.9 69
2019-05-28 08:00:00 9.8 0 Calma 7 Nordeste 0 953.1 1 73
2019-05-28 07:00:00 9.4 2 Este 8 Este 0 952.6 0.4 73
2019-05-28 06:00:00 9.1 3 Nordeste 6 Este 0 952.2 -0.2 76
2019-05-28 05:00:00 9.3 2 Nordeste 6 Nordeste 0 952.1 -0.3 75
2019-05-28 04:00:00 8.8 2 Sudeste 6 Nordeste 0 952.2 -0.4 78
2019-05-28 03:00:00 9.2 3 Este 9 Norte 0 952.4 -0.1 74
2019-05-28 02:00:00 9.5 4 Norte 7 Nordeste 0 952.4 -0.2 72
2019-05-28 01:00:00 10.8 4 Nordeste 8 Noroeste 0 952.6 0.5 71
2019-05-28 00:00:00 11.6 3 Norte 12 Sudoeste 0 952.5 1 71